Allin, Illinois
Current Conditions -  °F | °C
As of 12:56 AM on Saturday 01 Nov 2014 (Local Time) from KBMI Reporting Station
Clear Clear  
Wind Chill: 21°   Ceiling: Unl
Heat Index: 32°   Visibility: 10mi
Dew Point: 21°   Wind: 17mph
Humidity: 64%   Direction: 340°NNW
Pressure: 30.34"   Gusts: NA
Location:  40.4427°N, 89.2086°W
Report Text: KBMI 010556Z AUTO 34015KT 10SM CLR 00/M06 A3034 RMK AO2 53001 T00001061 10027 20000 400770000 SLP289
Loading
Personal Weather Stations






























Interactive Weather Map
Tropical Storm Tracking
New forecast layout! Learn more

10-Day Weather Forecast

Advertisements
Track Severe Weather on mobile